Time;durP1;ratioP1;P1;durP2;ratioP2;P2;SDS_P1;SDS_P2;PMS_P1;PMS_P2;Temp;Humidity;BMP_temperature;BMP_pressure;BME280_temperature;BME280_humidity;BME280_pressure;Samples;Min_cycle;Max_cycle;Signal;HPM_P1;HPM_P2
2021/11/18 00:01:05;;;;;;;45.17;27.80;;;4.80;99.90;;;;;;5044279;28;20033;-76
2021/11/18 00:03:31;;;;;;;44.13;27.92;;;4.80;99.90;;;;;;5042238;28;20023;-75
2021/11/18 00:05:57;;;;;;;42.15;27.75;;;4.80;99.90;;;;;;5044182;28;20100;-76
2021/11/18 00:08:24;;;;;;;50.10;28.95;;;4.90;99.90;;;;;;5035053;28;20045;-76
2021/11/18 00:11:04;;;;;;;52.58;30.88;;;4.90;99.90;;;;;;5043432;28;20089;-76
2021/11/18 00:13:36;;;;;;;44.75;28.10;;;4.80;99.90;;;;;;5047853;28;20014;-74
2021/11/18 00:16:03;;;;;;;45.15;28.80;;;4.80;99.90;;;;;;5038978;28;20764;-74
2021/11/18 00:18:31;;;;;;;39.38;26.92;;;4.80;99.90;;;;;;5046660;28;20117;-75
2021/11/18 00:21:05;;;;;;;50.92;31.60;;;4.80;99.90;;;;;;5038562;28;20112;-74
2021/11/18 00:23:36;;;;;;;53.47;31.88;;;4.80;99.90;;;;;;5045531;28;20018;-74
2021/11/18 00:26:04;;;;;;;45.38;30.40;;;4.80;99.90;;;;;;5045390;28;20017;-77
2021/11/18 00:28:29;;;;;;;61.65;33.65;;;4.80;99.90;;;;;;5040274;28;20025;-75
2021/11/18 00:30:55;;;;;;;56.40;32.67;;;4.70;99.90;;;;;;5043829;28;20025;-75
2021/11/18 00:33:22;;;;;;;49.90;30.02;;;4.80;99.90;;;;;;5041569;28;20017;-75
2021/11/18 00:35:48;;;;;;;45.97;29.15;;;4.80;99.90;;;;;;5041928;28;20092;-76
2021/11/18 00:38:14;;;;;;;54.10;31.17;;;4.90;99.90;;;;;;5035314;28;20018;-76
2021/11/18 00:40:43;;;;;;;49.40;29.27;;;4.90;99.90;;;;;;5042781;28;20037;-75
2021/11/18 00:43:10;;;;;;;51.22;31.60;;;4.90;99.90;;;;;;5040548;28;20024;-76
2021/11/18 00:45:36;;;;;;;57.33;31.70;;;4.90;99.90;;;;;;5042311;28;20028;-76
2021/11/18 00:48:03;;;;;;;62.10;34.53;;;4.90;99.90;;;;;;5043257;28;20021;-76
2021/11/18 00:50:45;;;;;;;52.13;31.92;;;5.00;99.90;;;;;;5041201;28;20057;-76
2021/11/18 00:53:10;;;;;;;57.88;32.78;;;4.90;99.90;;;;;;5039837;28;20018;-75
2021/11/18 00:55:36;;;;;;;59.78;32.83;;;5.00;99.90;;;;;;5047125;28;20096;-76
2021/11/18 00:58:04;;;;;;;59.28;34.88;;;5.00;99.90;;;;;;5041679;28;20498;-75
2021/11/18 01:00:33;;;;;;;52.75;31.63;;;4.90;99.90;;;;;;5050400;28;20487;-74
2021/11/18 01:02:59;;;;;;;50.45;31.48;;;5.00;99.90;;;;;;5037895;28;20456;-75
2021/11/18 01:05:28;;;;;;;62.95;34.15;;;5.00;99.90;;;;;;5049296;28;20086;-75
2021/11/18 01:07:56;;;;;;;61.58;33.75;;;5.00;99.90;;;;;;5038027;28;20010;-75
2021/11/18 01:10:23;;;;;;;57.13;33.13;;;5.00;99.90;;;;;;5047852;28;20017;-75
2021/11/18 01:12:49;;;;;;;57.00;34.00;;;5.00;99.90;;;;;;5047235;28;20018;-75
2021/11/18 01:15:19;;;;;;;56.80;33.45;;;5.00;99.90;;;;;;5045982;28;20017;-75
2021/11/18 01:17:45;;;;;;;58.45;33.95;;;5.00;99.90;;;;;;5045400;28;20017;-75
2021/11/18 01:20:12;;;;;;;61.13;34.70;;;5.00;99.90;;;;;;5045797;28;20537;-75
2021/11/18 01:22:38;;;;;;;50.65;31.45;;;5.10;99.90;;;;;;5046551;28;20036;-75
2021/11/18 01:25:05;;;;;;;67.15;35.53;;;5.10;99.90;;;;;;5045230;28;20021;-75
2021/11/18 01:27:30;;;;;;;63.35;35.47;;;5.10;99.90;;;;;;5041193;28;20013;-75
2021/11/18 01:29:56;;;;;;;54.30;32.97;;;5.00;99.90;;;;;;5047033;28;20024;-75
2021/11/18 01:32:22;;;;;;;58.17;33.88;;;5.00;99.90;;;;;;5044869;28;20036;-75
2021/11/18 01:34:47;;;;;;;61.72;34.50;;;5.10;99.90;;;;;;5047242;28;20108;-75
2021/11/18 01:37:16;;;;;;;64.05;35.08;;;5.20;99.90;;;;;;5042957;28;20487;-75
2021/11/18 01:39:42;;;;;;;62.83;34.65;;;5.10;99.90;;;;;;5048385;28;20530;-75
2021/11/18 01:42:07;;;;;;;57.50;34.30;;;5.10;99.90;;;;;;5042896;28;20033;-75
2021/11/18 01:44:40;;;;;;;61.88;34.42;;;5.20;99.90;;;;;;5053579;28;20096;-75
2021/11/18 01:47:08;;;;;;;58.47;34.03;;;5.20;99.90;;;;;;5048758;28;20016;-75
2021/11/18 01:49:34;;;;;;;61.33;33.25;;;5.20;99.90;;;;;;5037440;28;20025;-76
2021/11/18 01:52:03;;;;;;;66.50;33.72;;;5.20;99.90;;;;;;5048130;28;20017;-76
2021/11/18 01:54:32;;;;;;;56.25;33.05;;;5.20;99.90;;;;;;5043124;28;20446;-75
2021/11/18 01:57:00;;;;;;;61.88;36.53;;;5.20;99.90;;;;;;5046556;28;20033;-75
2021/11/18 01:59:39;;;;;;;60.05;33.47;;;5.20;99.90;;;;;;5044305;28;20044;-75
2021/11/18 02:02:05;;;;;;;67.35;34.92;;;5.20;99.90;;;;;;5045919;28;20483;-75
2021/11/18 02:04:31;;;;;;;63.67;35.22;;;5.30;99.90;;;;;;5044386;28;20055;-74
2021/11/18 02:07:07;;;;;;;64.40;34.03;;;5.10;99.90;;;;;;5045998;28;20043;-74
2021/11/18 02:09:42;;;;;;;74.50;37.85;;;5.10;99.90;;;;;;5041655;28;20023;-75
2021/11/18 02:12:16;;;;;;;51.30;26.60;;;5.10;99.90;;;;;;5044930;28;20486;-75
2021/11/18 02:14:42;;;;;;;69.20;37.72;;;5.10;99.90;;;;;;5045889;28;20033;-75
2021/11/18 02:17:09;;;;;;;59.15;34.35;;;5.10;99.90;;;;;;5044084;28;20028;-75
2021/11/18 02:19:39;;;;;;;58.75;33.78;;;5.20;99.90;;;;;;5031946;28;20032;-75
2021/11/18 02:22:05;;;;;;;64.13;34.95;;;5.20;99.90;;;;;;5043433;28;20021;-76
2021/11/18 02:24:38;;;;;;;64.28;34.88;;;5.20;99.90;;;;;;5034078;28;20379;-76
2021/11/18 02:27:04;;;;;;;72.00;35.22;;;5.20;99.90;;;;;;5020789;28;20384;-76
2021/11/18 02:29:30;;;;;;;67.00;35.90;;;5.30;99.90;;;;;;5024237;28;20033;-75
2021/11/18 02:32:06;;;;;;;73.28;36.97;;;5.20;99.90;;;;;;5026082;28;20041;-76
2021/11/18 02:34:54;;;;;;;69.78;37.28;;;5.20;99.90;;;;;;5026043;28;20022;-76
2021/11/18 02:37:20;;;;;;;80.75;39.08;;;5.20;99.90;;;;;;5037525;28;20032;-75
2021/11/18 02:39:46;;;;;;;79.13;39.13;;;5.20;99.90;;;;;;5032134;28;20037;-75
2021/11/18 02:42:14;;;;;;;77.00;38.00;;;5.20;99.90;;;;;;5021884;28;20091;-75
2021/11/18 02:44:40;;;;;;;83.70;39.53;;;5.20;99.90;;;;;;5031931;28;20117;-75
2021/11/18 02:47:12;;;;;;;80.70;40.95;;;5.10;99.90;;;;;;5013531;28;20030;-76
2021/11/18 02:49:43;;;;;;;77.47;40.45;;;5.10;99.90;;;;;;5015284;28;20028;-76
2021/11/18 02:52:10;;;;;;;76.78;38.58;;;5.20;99.90;;;;;;5024542;28;20450;-76
2021/11/18 02:54:37;;;;;;;82.53;40.53;;;5.20;99.90;;;;;;5032206;28;20026;-76
2021/11/18 02:57:03;;;;;;;76.40;38.70;;;5.10;99.90;;;;;;5023884;28;20442;-76
2021/11/18 02:59:29;;;;;;;68.28;37.45;;;5.20;99.90;;;;;;5034792;28;20030;-76
2021/11/18 03:01:55;;;;;;;71.10;39.80;;;5.20;99.90;;;;;;5023512;28;20404;-75
2021/11/18 03:04:20;;;;;;;79.90;40.22;;;5.20;99.90;;;;;;5030404;28;20034;-75
2021/11/18 03:06:46;;;;;;;77.93;39.80;;;5.30;99.90;;;;;;5022731;28;20091;-75
2021/11/18 03:09:11;;;;;;;83.60;41.67;;;5.30;99.90;;;;;;5020010;28;20032;-76
2021/11/18 03:11:37;;;;;;;82.53;42.92;;;5.30;99.90;;;;;;5023092;28;20385;-76
2021/11/18 03:14:03;;;;;;;82.25;42.00;;;5.30;99.90;;;;;;5026609;28;20049;-76
2021/11/18 03:16:29;;;;;;;70.88;39.90;;;5.40;99.90;;;;;;5022457;28;20055;-76
2021/11/18 03:18:55;;;;;;;82.07;42.22;;;5.40;99.90;;;;;;5019274;28;20026;-76
2021/11/18 03:21:23;;;;;;;72.35;39.83;;;5.40;99.90;;;;;;5031279;28;20549;-76
2021/11/18 03:23:51;;;;;;;75.50;41.58;;;5.40;99.90;;;;;;5019340;28;20480;-77
2021/11/18 03:26:20;;;;;;;80.05;40.63;;;5.40;99.90;;;;;;5023172;28;20464;-77
2021/11/18 03:28:46;;;;;;;68.95;39.13;;;5.40;99.90;;;;;;5011652;28;20029;-76
2021/11/18 03:31:13;;;;;;;72.93;40.10;;;5.50;99.90;;;;;;5021720;28;20021;-75
2021/11/18 03:33:44;;;;;;;84.60;42.28;;;5.50;99.90;;;;;;5020236;28;20030;-76
2021/11/18 03:36:11;;;;;;;84.38;41.13;;;5.50;99.90;;;;;;5033076;28;20031;-76
2021/11/18 03:38:38;;;;;;;73.45;38.67;;;5.50;99.90;;;;;;5027142;28;20084;-76
2021/11/18 03:41:05;;;;;;;77.07;40.63;;;5.50;99.90;;;;;;5024568;28;20034;-76
2021/11/18 03:43:44;;;;;;;85.13;42.58;;;5.50;99.90;;;;;;5032477;28;20022;-76
2021/11/18 03:46:11;;;;;;;84.57;41.95;;;5.40;99.90;;;;;;5031857;28;20017;-76
2021/11/18 03:48:37;;;;;;;86.68;42.78;;;5.40;99.90;;;;;;5019931;28;20060;-77
2021/11/18 03:51:05;;;;;;;79.55;41.80;;;5.40;99.90;;;;;;5019038;28;20057;-76
2021/11/18 03:53:34;;;;;;;83.55;41.47;;;5.30;99.90;;;;;;5024747;28;20484;-76
2021/11/18 03:56:05;;;;;;;89.07;40.95;;;5.30;99.90;;;;;;5025875;28;20104;-76
2021/11/18 03:58:30;;;;;;;71.85;39.47;;;5.30;99.90;;;;;;5012419;28;20121;-76
2021/11/18 04:00:56;;;;;;;77.93;39.22;;;5.20;99.90;;;;;;5025455;28;20100;-76
2021/11/18 04:03:22;;;;;;;94.97;43.17;;;5.30;99.90;;;;;;5020942;28;20017;-76
2021/11/18 04:05:47;;;;;;;73.32;38.20;;;5.30;99.90;;;;;;5017049;28;20521;-76
2021/11/18 04:08:13;;;;;;;72.90;38.63;;;5.20;99.90;;;;;;5020551;28;20483;-76
2021/11/18 04:10:40;;;;;;;78.03;39.85;;;5.30;99.90;;;;;;5018688;28;20091;-76
2021/11/18 04:13:07;;;;;;;73.30;38.95;;;5.30;99.90;;;;;;5022323;28;20029;-75
2021/11/18 04:15:33;;;;;;;76.45;37.53;;;5.30;99.90;;;;;;5024156;28;20365;-75
2021/11/18 04:18:00;;;;;;;97.88;42.78;;;5.30;99.90;;;;;;5020679;28;20498;-76
2021/11/18 04:20:26;;;;;;;72.97;37.67;;;5.30;99.90;;;;;;5017065;28;20040;-75
2021/11/18 04:22:54;;;;;;;101.05;43.13;;;5.30;99.90;;;;;;5031681;28;20030;-76
2021/11/18 04:25:24;;;;;;;75.85;38.25;;;5.20;99.90;;;;;;5018786;28;20556;-77
2021/11/18 04:27:50;;;;;;;88.60;42.00;;;5.30;99.90;;;;;;5021027;28;20025;-76
2021/11/18 04:30:21;;;;;;;127.47;45.75;;;5.10;99.90;;;;;;5024052;28;20075;-76
2021/11/18 04:32:47;;;;;;;100.43;43.13;;;4.90;99.90;;;;;;5019949;28;20037;-76
2021/11/18 04:35:14;;;;;;;103.55;42.20;;;4.70;99.90;;;;;;5031853;28;20025;-76
2021/11/18 04:37:40;;;;;;;126.57;47.40;;;4.90;99.90;;;;;;5030592;28;20033;-76
2021/11/18 04:40:06;;;;;;;82.05;40.10;;;4.90;99.90;;;;;;5027667;28;20033;-76
2021/11/18 04:42:32;;;;;;;96.55;44.53;;;4.90;99.90;;;;;;5022629;28;20022;-76
2021/11/18 04:44:57;;;;;;;109.47;47.55;;;5.10;99.90;;;;;;5018206;28;20526;-76
2021/11/18 04:47:23;;;;;;;110.50;47.65;;;5.00;99.90;;;;;;5021113;28;20084;-76
2021/11/18 04:49:49;;;;;;;92.47;44.20;;;5.00;99.90;;;;;;5024989;28;20022;-76
2021/11/18 04:52:17;;;;;;;79.50;42.97;;;5.00;99.90;;;;;;5022224;28;20029;-76
2021/11/18 04:54:43;;;;;;;101.82;47.42;;;5.20;99.90;;;;;;5018104;28;20030;-75
2021/11/18 04:57:10;;;;;;;93.40;44.08;;;5.20;99.90;;;;;;5020714;28;20034;-76
2021/11/18 04:59:36;;;;;;;84.82;42.78;;;5.30;99.90;;;;;;5024887;28;20105;-76
2021/11/18 05:02:02;;;;;;;76.63;40.45;;;5.40;99.90;;;;;;5022164;28;20148;-76
2021/11/18 05:04:28;;;;;;;88.22;43.33;;;5.30;99.90;;;;;;5018293;28;20552;-75
2021/11/18 05:06:53;;;;;;;84.40;42.25;;;5.30;99.90;;;;;;5020686;28;20088;-76
2021/11/18 05:09:19;;;;;;;89.00;44.95;;;5.30;99.90;;;;;;5028982;28;20080;-76
2021/11/18 05:11:45;;;;;;;81.85;41.25;;;5.40;99.90;;;;;;5020632;28;20037;-75
2021/11/18 05:14:11;;;;;;;81.00;42.78;;;5.30;99.90;;;;;;5024879;28;20435;-75
2021/11/18 05:16:37;;;;;;;90.57;44.03;;;5.30;99.90;;;;;;5022416;28;20044;-75
2021/11/18 05:19:03;;;;;;;86.10;44.13;;;5.30;99.90;;;;;;5018114;28;20034;-76
2021/11/18 05:21:29;;;;;;;77.93;41.58;;;5.30;99.90;;;;;;5020167;28;20117;-73
2021/11/18 05:24:00;;;;;;;92.22;44.40;;;5.40;99.90;;;;;;5023362;28;20022;-72
2021/11/18 05:26:26;;;;;;;72.72;40.00;;;5.40;99.90;;;;;;5023057;28;20507;-79
2021/11/18 05:28:52;;;;;;;100.35;45.80;;;5.40;99.90;;;;;;5033543;28;20475;-75
2021/11/18 05:31:21;;;;;;;70.70;39.20;;;5.30;99.90;;;;;;5031028;28;20076;-74
2021/11/18 05:33:47;;;;;;;94.65;45.90;;;5.30;99.90;;;;;;5030833;28;20415;-74
2021/11/18 05:36:13;;;;;;;87.45;44.42;;;5.30;99.90;;;;;;5022199;28;20022;-73
2021/11/18 05:38:40;;;;;;;96.32;45.58;;;5.30;99.90;;;;;;5025724;28;20025;-74
2021/11/18 05:41:05;;;;;;;90.05;45.63;;;5.30;99.90;;;;;;5026359;28;20029;-74
2021/11/18 05:43:35;;;;;;;87.05;43.90;;;5.20;99.90;;;;;;5020799;28;20060;-74
2021/11/18 05:46:00;;;;;;;84.13;43.00;;;5.20;99.90;;;;;;5033442;28;20025;-75
2021/11/18 05:48:26;;;;;;;90.45;45.55;;;5.20;99.90;;;;;;5021300;28;20075;-75
2021/11/18 05:50:55;;;;;;;100.53;47.83;;;5.20;99.90;;;;;;5034363;28;20407;-75
2021/11/18 05:53:25;;;;;;;100.43;47.83;;;5.10;99.90;;;;;;5021252;28;20067;-75
2021/11/18 05:55:52;;;;;;;105.28;47.70;;;5.10;99.90;;;;;;5021375;28;20046;-74
2021/11/18 05:58:18;;;;;;;97.70;45.65;;;4.90;99.90;;;;;;5027291;28;20037;-74
2021/11/18 06:00:43;;;;;;;100.78;44.75;;;4.90;99.90;;;;;;5026445;28;20029;-75
2021/11/18 06:03:09;;;;;;;97.40;44.78;;;4.90;99.90;;;;;;5021730;28;20029;-75
2021/11/18 06:05:35;;;;;;;100.00;47.97;;;4.80;99.90;;;;;;5019745;28;20060;-76
2021/11/18 06:08:01;;;;;;;90.20;44.58;;;4.90;99.90;;;;;;5025879;28;20506;-76
2021/11/18 06:10:29;;;;;;;118.88;50.53;;;4.90;99.90;;;;;;5013370;28;20530;-76
2021/11/18 06:12:55;;;;;;;97.47;45.95;;;4.90;99.90;;;;;;5014530;28;20034;-76
2021/11/18 06:15:21;;;;;;;89.10;45.40;;;4.90;99.90;;;;;;5015092;28;20026;-77
2021/11/18 06:17:46;;;;;;;95.03;46.83;;;4.90;99.90;;;;;;5027037;28;20034;-77
2021/11/18 06:20:13;;;;;;;86.65;45.40;;;5.00;99.90;;;;;;5014920;28;20029;-76
2021/11/18 06:22:40;;;;;;;106.05;49.22;;;5.00;99.90;;;;;;5033941;28;20085;-76
2021/11/18 06:25:07;;;;;;;114.80;51.15;;;5.00;99.90;;;;;;5020977;28;20100;-75
2021/11/18 06:27:36;;;;;;;86.82;43.75;;;5.10;99.90;;;;;;5033904;28;20049;-75
2021/11/18 06:30:03;;;;;;;86.63;45.30;;;5.00;99.90;;;;;;5019475;28;20022;-75
2021/11/18 06:32:28;;;;;;;106.28;60.72;;;5.00;99.90;;;;;;5021156;28;20057;-75
2021/11/18 06:34:56;;;;;;;186.25;130.82;;;5.10;99.90;;;;;;5032383;28;20060;-75
2021/11/18 06:37:21;;;;;;;100.97;55.15;;;5.00;99.90;;;;;;5033898;28;20067;-75
2021/11/18 06:39:47;;;;;;;117.88;68.75;;;5.00;99.90;;;;;;5032619;28;20041;-75
2021/11/18 06:42:13;;;;;;;118.10;58.70;;;5.00;99.90;;;;;;5025549;28;20076;-75
2021/11/18 06:44:41;;;;;;;103.35;57.45;;;5.00;99.90;;;;;;5027272;28;20025;-76
2021/11/18 06:47:06;;;;;;;93.43;52.22;;;5.10;99.90;;;;;;5022192;28;20043;-75
2021/11/18 06:49:32;;;;;;;96.38;58.28;;;5.10;99.90;;;;;;5020323;28;20476;-75
2021/11/18 06:51:57;;;;;;;98.03;53.92;;;5.10;99.90;;;;;;5025010;28;20033;-75
2021/11/18 06:54:23;;;;;;;93.32;52.22;;;5.20;99.90;;;;;;5026072;28;20060;-75
2021/11/18 06:56:49;;;;;;;95.13;51.30;;;5.20;99.90;;;;;;5020739;28;20037;-73
2021/11/18 06:59:15;;;;;;;92.97;49.60;;;5.10;99.90;;;;;;5018957;28;20079;-75
2021/11/18 07:01:42;;;;;;;87.78;48.00;;;5.20;99.90;;;;;;5024948;28;20097;-75
2021/11/18 07:04:08;;;;;;;88.55;50.08;;;5.20;99.90;;;;;;5025650;28;20021;-75
2021/11/18 07:06:36;;;;;;;86.57;49.75;;;5.20;99.90;;;;;;5021809;28;20017;-75
2021/11/18 07:09:04;;;;;;;84.05;46.20;;;5.20;99.90;;;;;;5018619;28;20026;-75
2021/11/18 07:11:30;;;;;;;84.22;46.25;;;5.20;99.90;;;;;;5031790;28;20400;-74
2021/11/18 07:13:56;;;;;;;81.20;47.45;;;5.20;99.90;;;;;;5017932;28;20084;-75
2021/11/18 07:16:23;;;;;;;80.88;45.80;;;5.10;99.90;;;;;;5022008;28;20026;-75
2021/11/18 07:18:49;;;;;;;87.05;46.30;;;5.10;99.90;;;;;;5018343;28;20068;-75
2021/11/18 07:21:16;;;;;;;89.65;48.97;;;5.10;99.90;;;;;;5023106;28;20061;-75
2021/11/18 07:23:43;;;;;;;88.25;46.55;;;5.10;99.90;;;;;;5028880;28;20041;-75
2021/11/18 07:26:10;;;;;;;90.18;48.03;;;5.00;99.90;;;;;;5024112;28;20032;-74
2021/11/18 07:28:39;;;;;;;85.55;45.65;;;5.00;99.90;;;;;;5028540;28;20034;-75
2021/11/18 07:31:05;;;;;;;71.55;42.13;;;5.00;99.90;;;;;;5023669;28;20032;-74
2021/11/18 07:33:32;;;;;;;90.20;47.08;;;5.00;99.90;;;;;;5011869;28;20034;-74
2021/11/18 07:35:58;;;;;;;81.30;47.15;;;5.20;99.90;;;;;;5022096;28;20022;-75
2021/11/18 07:38:28;;;;;;;85.80;46.67;;;5.20;99.90;;;;;;5018058;28;20025;-75
2021/11/18 07:40:54;;;;;;;89.85;49.22;;;5.20;99.90;;;;;;5022265;28;20061;-75
2021/11/18 07:43:24;;;;;;;94.80;50.95;;;5.10;99.90;;;;;;5024587;28;20022;-74
2021/11/18 07:45:52;;;;;;;84.00;48.70;;;5.20;99.90;;;;;;5023921;28;20100;-75
2021/11/18 07:48:18;;;;;;;83.30;45.58;;;5.30;99.90;;;;;;5019105;28;20025;-75
2021/11/18 07:50:44;;;;;;;81.63;45.72;;;5.30;99.90;;;;;;5021428;28;20028;-75
2021/11/18 07:53:10;;;;;;;81.90;47.20;;;5.30;99.90;;;;;;5025943;28;20076;-74
2021/11/18 07:55:36;;;;;;;85.82;48.38;;;5.40;99.90;;;;;;5023450;28;20030;-75
2021/11/18 07:58:02;;;;;;;99.85;55.97;;;5.30;99.90;;;;;;5018899;28;20044;-75
2021/11/18 08:00:28;;;;;;;74.50;44.50;;;5.30;99.90;;;;;;5021119;28;20030;-74
2021/11/18 08:02:53;;;;;;;83.50;46.55;;;5.40;99.90;;;;;;5016119;28;20072;-75
2021/11/18 08:05:20;;;;;;;82.47;43.80;;;5.40;99.90;;;;;;5021843;28;20026;-74
2021/11/18 08:07:46;;;;;;;84.40;46.58;;;5.40;99.90;;;;;;5025798;28;20580;-75
2021/11/18 08:10:13;;;;;;;80.13;44.65;;;5.40;99.90;;;;;;5022506;28;20097;-74
2021/11/18 08:12:39;;;;;;;84.72;45.05;;;5.40;99.90;;;;;;5032236;28;20112;-75
2021/11/18 08:15:07;;;;;;;87.82;48.67;;;5.40;99.90;;;;;;5023134;28;20105;-74
2021/11/18 08:17:33;;;;;;;86.45;45.88;;;5.40;99.90;;;;;;5025762;28;20049;-75
2021/11/18 08:19:59;;;;;;;91.45;50.45;;;5.50;99.90;;;;;;5021029;28;20061;-74
2021/11/18 08:22:24;;;;;;;79.90;48.75;;;5.50;99.90;;;;;;5013934;28;20025;-75
2021/11/18 08:24:50;;;;;;;118.57;72.22;;;5.60;99.90;;;;;;5022364;28;20522;-74
2021/11/18 08:27:15;;;;;;;100.63;54.92;;;5.60;99.90;;;;;;5017308;28;20127;-75
2021/11/18 08:29:42;;;;;;;102.65;57.42;;;5.60;99.90;;;;;;5021931;28;20025;-75
2021/11/18 08:32:08;;;;;;;97.00;49.72;;;5.60;99.90;;;;;;5028722;28;20033;-75
2021/11/18 08:34:34;;;;;;;82.07;44.67;;;5.70;99.90;;;;;;5030625;28;20060;-74
2021/11/18 08:37:00;;;;;;;86.38;44.78;;;5.70;99.90;;;;;;5017168;28;20476;-75
2021/11/18 08:39:27;;;;;;;86.20;43.78;;;5.70;99.90;;;;;;5020148;28;20076;-75
2021/11/18 08:42:00;;;;;;;75.05;42.67;;;5.70;99.90;;;;;;5023821;28;20730;-75
2021/11/18 08:44:28;;;;;;;82.18;45.42;;;5.80;99.90;;;;;;5010820;28;20044;-75
2021/11/18 08:46:55;;;;;;;67.80;40.97;;;5.80;99.90;;;;;;5017404;28;20045;-75
2021/11/18 08:49:22;;;;;;;80.35;43.80;;;5.90;99.90;;;;;;5034055;28;20018;-76
2021/11/18 08:51:48;;;;;;;63.60;39.22;;;5.90;99.90;;;;;;5035302;28;20082;-75
2021/11/18 08:54:20;;;;;;;65.03;40.58;;;5.90;99.90;;;;;;5040437;28;20044;-75
2021/11/18 08:56:47;;;;;;;82.72;52.13;;;6.10;99.90;;;;;;5028267;28;20033;-75
2021/11/18 08:59:13;;;;;;;74.07;41.80;;;6.10;99.90;;;;;;5019367;28;20026;-75
2021/11/18 09:01:46;;;;;;;65.90;40.47;;;6.10;99.90;;;;;;5031357;28;20498;-75
2021/11/18 09:04:16;;;;;;;74.63;46.17;;;6.20;99.90;;;;;;5031737;28;20031;-75
2021/11/18 09:06:42;;;;;;;69.22;43.72;;;6.30;99.90;;;;;;5031872;28;20545;-76
2021/11/18 09:09:09;;;;;;;75.97;44.58;;;6.40;99.90;;;;;;5018991;28;20041;-76
2021/11/18 09:11:37;;;;;;;75.95;44.70;;;6.50;99.90;;;;;;5030249;28;20086;-75
2021/11/18 09:14:04;;;;;;;74.28;43.88;;;6.50;99.90;;;;;;5030330;28;20026;-75
2021/11/18 09:16:32;;;;;;;68.65;42.97;;;6.40;99.90;;;;;;5021690;28;20112;-75
2021/11/18 09:18:58;;;;;;;70.63;39.42;;;6.40;99.90;;;;;;5028241;28;20037;-75
2021/11/18 09:21:26;;;;;;;59.05;36.53;;;6.40;99.90;;;;;;5040703;28;20021;-75
2021/11/18 09:23:58;;;;;;;65.68;35.80;;;6.50;99.90;;;;;;5055093;28;20490;-75
2021/11/18 09:26:28;;;;;;;56.00;33.88;;;6.40;99.90;;;;;;5042973;28;20021;-75
2021/11/18 09:28:54;;;;;;;56.80;35.83;;;6.40;99.90;;;;;;5033809;28;20024;-75
2021/11/18 09:31:21;;;;;;;50.70;34.83;;;6.50;99.90;;;;;;5035110;28;20450;-75
2021/11/18 09:33:48;;;;;;;53.05;33.65;;;6.60;99.90;;;;;;5021225;28;20025;-75
2021/11/18 09:36:14;;;;;;;53.30;33.67;;;6.80;99.90;;;;;;5035128;28;20036;-76
2021/11/18 09:38:44;;;;;;;59.60;36.75;;;6.80;99.90;;;;;;5034809;28;20026;-75
2021/11/18 09:41:25;;;;;;;54.63;31.90;;;7.00;99.90;;;;;;5020102;28;20112;-75
2021/11/18 09:44:28;;;;;;;49.33;32.58;;;7.00;99.90;;;;;;5023433;28;20610;-75
2021/11/18 09:47:29;;;;;;;53.35;32.15;;;7.00;99.90;;;;;;5015215;28;20116;-75
2021/11/18 09:50:18;;;;;;;49.22;31.33;;;7.00;99.90;;;;;;5031657;28;20053;-75
2021/11/18 09:53:17;;;;;;;50.55;31.83;;;7.00;99.90;;;;;;5033439;28;20032;-75
2021/11/18 09:55:54;;;;;;;53.55;33.22;;;7.00;99.90;;;;;;5035094;28;20411;-75
2021/11/18 09:58:48;;;;;;;49.97;32.30;;;7.00;99.90;;;;;;5014806;28;20495;-75
2021/11/18 10:01:31;;;;;;;50.45;30.17;;;7.10;99.90;;;;;;5014633;28;20037;-75
2021/11/18 10:04:12;;;;;;;57.67;35.05;;;7.10;99.90;;;;;;5026648;28;20017;-75
2021/11/18 10:06:40;;;;;;;61.15;38.15;;;7.20;99.90;;;;;;5014742;28;20061;-75
2021/11/18 10:09:25;;;;;;;51.60;35.97;;;7.20;99.90;;;;;;5016695;28;20053;-75
2021/11/18 10:12:06;;;;;;;51.10;34.35;;;7.20;99.90;;;;;;5032507;28;20026;-75
2021/11/18 10:14:45;;;;;;;55.60;36.30;;;7.30;99.90;;;;;;5032996;28;20041;-75
2021/11/18 10:17:11;;;;;;;59.47;39.88;;;7.40;99.90;;;;;;5017978;28;20037;-75
2021/11/18 10:19:42;;;;;;;96.80;68.10;;;7.50;99.90;;;;;;5018390;28;20501;-75
2021/11/18 10:22:12;;;;;;;83.28;54.30;;;7.40;99.90;;;;;;5034115;28;20060;-75
2021/11/18 10:24:41;;;;;;;62.95;42.42;;;7.30;99.90;;;;;;5032921;28;20017;-75
2021/11/18 10:27:15;;;;;;;49.22;30.90;;;7.30;99.90;;;;;;5032934;28;20480;-75
2021/11/18 10:30:00;;;;;;;58.50;35.40;;;7.40;99.90;;;;;;5022815;28;20030;-75
2021/11/18 10:32:29;;;;;;;60.08;36.67;;;7.20;99.90;;;;;;5036453;28;20056;-75
2021/11/18 10:35:15;;;;;;;57.72;37.97;;;7.00;99.90;;;;;;5034393;28;20107;-75
2021/11/18 10:37:45;;;;;;;54.45;32.65;;;7.00;99.90;;;;;;5033973;28;20055;-75
2021/11/18 10:40:30;;;;;;;49.60;31.92;;;7.10;99.90;;;;;;5020709;28;20079;-75
2021/11/18 10:43:02;;;;;;;53.00;33.40;;;7.10;99.90;;;;;;5019290;28;20041;-75
2021/11/18 10:45:27;;;;;;;48.67;32.78;;;7.20;99.90;;;;;;5025218;28;20392;-75
2021/11/18 10:48:05;;;;;;;56.60;35.58;;;7.20;99.90;;;;;;5025948;28;20018;-75
2021/11/18 10:50:37;;;;;;;37.25;24.30;;;7.30;99.90;;;;;;5026369;28;20064;-75
2021/11/18 10:53:26;;;;;;;36.05;23.27;;;7.20;99.90;;;;;;5033603;28;20052;-75
2021/11/18 10:56:07;;;;;;;33.00;23.48;;;7.30;99.90;;;;;;5032400;28;20095;-75
2021/11/18 10:58:39;;;;;;;31.10;21.30;;;7.20;99.90;;;;;;5044565;28;20484;-75
2021/11/18 11:01:35;;;;;;;35.15;22.75;;;7.20;99.90;;;;;;5033092;28;20029;-75
2021/11/18 11:04:07;;;;;;;29.33;21.38;;;7.20;99.90;;;;;;5036751;28;20372;-75
2021/11/18 11:06:45;;;;;;;32.55;21.85;;;7.10;99.90;;;;;;5029548;28;20017;-75
2021/11/18 11:09:15;;;;;;;29.70;21.55;;;7.10;99.90;;;;;;5044577;28;20060;-75
2021/11/18 11:12:22;;;;;;;30.25;20.33;;;7.20;99.90;;;;;;5036312;28;20440;-75
2021/11/18 11:15:09;;;;;;;33.35;23.30;;;7.20;99.90;;;;;;5027521;28;20391;-75
2021/11/18 11:18:02;;;;;;;29.48;21.50;;;7.30;99.90;;;;;;5045727;28;20028;-75
2021/11/18 11:20:51;;;;;;;30.42;20.45;;;7.30;99.90;;;;;;5040526;28;20437;-75
2021/11/18 11:24:02;;;;;;;27.48;20.17;;;7.20;99.90;;;;;;5042630;28;20078;-75
2021/11/18 11:26:36;;;;;;;33.65;23.90;;;7.30;99.90;;;;;;5035227;28;20059;-76
2021/11/18 11:29:23;;;;;;;26.38;19.17;;;7.40;99.90;;;;;;5047573;28;20026;-75
2021/11/18 11:32:07;;;;;;;;;;;7.30;99.90;;;;;;5045787;28;20475;-75
2021/11/18 11:34:54;;;;;;;31.67;20.63;;;7.30;99.90;;;;;;5036544;28;20309;-75
2021/11/18 11:37:40;;;;;;;29.38;21.25;;;7.30;99.90;;;;;;5041424;28;20048;-75
2021/11/18 11:40:08;;;;;;;33.67;22.17;;;7.30;99.90;;;;;;5040312;28;20070;-75
2021/11/18 11:42:55;;;;;;;31.30;20.92;;;7.40;99.90;;;;;;5040667;28;20770;-75
2021/11/18 11:45:42;;;;;;;32.85;21.65;;;7.50;99.90;;;;;;5043814;28;20100;-75
2021/11/18 11:48:10;;;;;;;;;;;7.50;99.90;;;;;;5044699;28;20056;-75
2021/11/18 11:51:13;;;;;;;31.23;22.05;;;7.40;99.90;;;;;;5037912;28;19975;-75
2021/11/18 11:53:53;;;;;;;26.83;19.13;;;7.50;99.90;;;;;;5028815;28;20026;-75
2021/11/18 11:56:35;;;;;;;26.65;17.67;;;7.40;99.90;;;;;;5038864;28;20027;-75
2021/11/18 11:59:05;;;;;;;27.10;19.00;;;7.40;99.90;;;;;;5036637;28;20108;-76
2021/11/18 12:01:47;;;;;;;27.17;19.25;;;7.40;99.90;;;;;;5043296;28;20059;-75
2021/11/18 12:04:38;;;;;;;28.58;20.75;;;7.40;99.90;;;;;;5035610;28;20682;-76
2021/11/18 12:07:37;;;;;;;24.90;18.70;;;7.40;99.90;;;;;;5046146;28;20021;-76
2021/11/18 12:10:30;;;;;;;27.85;19.02;;;7.40;99.90;;;;;;5032273;28;20025;-76
2021/11/18 12:13:28;;;;;;;25.52;17.15;;;7.40;99.90;;;;;;5033031;28;20025;-76
2021/11/18 12:16:06;;;;;;;28.10;18.75;;;7.40;99.90;;;;;;5038979;28;20108;-75
2021/11/18 12:18:48;;;;;;;28.13;19.73;;;7.40;99.90;;;;;;5043479;28;20059;-75
2021/11/18 12:21:18;;;;;;;27.85;18.88;;;7.40;99.90;;;;;;5038318;28;20071;-75
2021/11/18 12:24:13;;;;;;;28.58;18.27;;;7.40;99.90;;;;;;5042466;28;20029;-75
2021/11/18 12:26:47;;;;;;;26.80;18.60;;;7.40;99.90;;;;;;5029677;28;20356;-75
2021/11/18 12:29:16;;;;;;;27.75;19.00;;;7.40;99.90;;;;;;5039931;28;20014;-75
2021/11/18 12:32:03;;;;;;;28.67;18.25;;;7.40;99.90;;;;;;5029225;28;20024;-75
2021/11/18 12:34:47;;;;;;;24.42;15.75;;;7.50;99.90;;;;;;5030141;28;20419;-76
2021/11/18 12:37:34;;;;;;;21.42;16.40;;;7.40;99.90;;;;;;5028156;28;20021;-75
2021/11/18 12:40:15;;;;;;;21.58;15.68;;;7.50;99.90;;;;;;5026884;28;20030;-76
2021/11/18 12:43:00;;;;;;;24.92;15.95;;;7.50;99.90;;;;;;5020159;28;20030;-76
2021/11/18 12:46:03;;;;;;;22.85;15.35;;;7.50;99.90;;;;;;5012163;28;20037;-76
2021/11/18 12:48:53;;;;;;;23.58;15.75;;;7.40;99.90;;;;;;5028237;28;20109;-75
2021/11/18 12:51:34;;;;;;;23.30;16.50;;;7.40;99.90;;;;;;5014887;28;20024;-76
2021/11/18 12:54:09;;;;;;;22.92;15.85;;;7.50;99.90;;;;;;5023646;28;20025;-75